HomeShort term forecast

Short term forecast

Graphical weather forecast for the next 48 hours for Montreal:
Short term forecast
This weather forecast is automatically refreshed every 3 hours.

Hourly Experimental Forecast for the next 48 hours

Overall summary: Light snow tomorrow morning and breezy starting tomorrow morning, continuing until tomorrow afternoon.

 Date & Hour   Temp   Feel   Baro   Hum   Speed & Bearing   Wind Gust   Precip.%   Precip.   Visibility   Cloud cover   Conditions 
 15/01/2019 - 19:00  -4.5°C  -8.3°C  1016.6 hPa  87%  8.9 km/h   16.1 km/h  5%  0.01 mm/h  11.6km  100%  Overcast 
 15/01/2019 - 20:00  -4.4°C  -8.2°C  1016.2 hPa  87%  9.1 km/h   16.4 km/h  3%  0.06 mm/h  13.8km  100%  Overcast 
 15/01/2019 - 21:00  -3.9°C  -7.8°C  1015.6 hPa  87%  9.3 km/h   20.4 km/h  4%  0.07 mm/h  14.3km  90%  Mostly Cloudy 
 15/01/2019 - 22:00  -3.2°C  -7.2°C  1014.9 hPa  86%  10.4 km/h   24.6 km/h  3%  0.06 mm/h  14.0km  99%  Overcast 
 15/01/2019 - 23:00  -2.2°C  -6.4°C  1013.9 hPa  83%  11.9 km/h   31.6 km/h  5%  0.10 mm/h  14.6km  100%  Overcast 
 16/01/2019 - 00:00  -1.6°C  -6.0°C  1012.9 hPa  81%  13.3 km/h   35.4 km/h  3%  0.04 mm/h  16.1km  100%  Overcast 
 16/01/2019 - 01:00  -1.3°C  -6.0°C  1011.8 hPa  80%  15.0 km/h   38.6 km/h  3%  0.04 mm/h  16.1km  100%  Overcast 
 16/01/2019 - 02:00  -1.4°C  -6.4°C  1011.0 hPa  80%  16.9 km/h   41.8 km/h  5%  0.07 mm/h  16.1km  97%  Overcast 
 16/01/2019 - 03:00  -1.6°C  -6.9°C  1010.2 hPa  81%  18.2 km/h   43.7 km/h  8%  0.15 mm/h  15.2km  100%  Overcast 
 16/01/2019 - 04:00  -1.8°C  -7.5°C  1009.2 hPa  82%  19.5 km/h   46.2 km/h  6%  0.06 mm/h  16.1km  100%  Overcast 
 16/01/2019 - 05:00  -2.2°C  -8.2°C  1008.3 hPa  83%  21.7 km/h   50.2 km/h  12%  0.09 mm/h  13.5km  100%  Overcast 
 16/01/2019 - 06:00  -2.4°C  -8.7°C  1007.7 hPa  84%  22.7 km/h   51.2 km/h  14%  0.07 mm/h  15.1km  100%  Overcast 
 16/01/2019 - 07:00  -2.6°C  -9.0°C  1007.1 hPa  85%  23.6 km/h   52.3 km/h  18%  0.14 mm/h  9.8km  96%  Overcast 
 16/01/2019 - 08:00  -2.4°C  -9.0°C  1006.6 hPa  86%  25.1 km/h   55.1 km/h  15%  0.13 mm/h  7.9km  100%  Overcast 
 16/01/2019 - 09:00  -2.0°C  -8.6°C  1006.0 hPa  87%  26.4 km/h   57.3 km/h  14%  0.20 mm/h  3.4km  100%  Possible Light Snow 
 16/01/2019 - 10:00  -1.8°C  -8.5°C  1005.7 hPa  89%  28.0 km/h   58.5 km/h  15%  0.24 mm/h  2.2km  100%  Possible Light Snow 
 16/01/2019 - 11:00  -1.4°C  -8.3°C  1005.5 hPa  87%  30.0 km/h   58.3 km/h  14%  0.18 mm/h  7.8km  99%  Breezy and Overcast 
 16/01/2019 - 12:00  -1.2°C  -8.1°C  1005.5 hPa  85%  31.4 km/h   57.1 km/h  16%  0.12 mm/h  16.1km  98%  Breezy and Overcast 
 16/01/2019 - 13:00  -1.5°C  -8.9°C  1006.1 hPa  82%  33.8 km/h   55.1 km/h  12%  0.10 mm/h  16.1km  96%  Breezy and Overcast 
 16/01/2019 - 14:00  -3.0°C  -10.7°C  1007.7 hPa  76%  32.8 km/h   51.6 km/h  7%  0.06 mm/h  16.1km  78%  Breezy and Mostly Cloudy 
 16/01/2019 - 15:00  -5.2°C  -13.6°C  1010.0 hPa  71%  32.5 km/h   47.1 km/h  4%  0.02 mm/h  16.1km  55%  Breezy and Partly Cloudy 
 16/01/2019 - 16:00  -7.4°C  -16.2°C  1012.4 hPa  67%  31.0 km/h   43.7 km/h  4%  0.01 mm/h  16.1km  35%  Breezy and Partly Cloudy 
 16/01/2019 - 17:00  -9.2°C  -18.3°C  1014.7 hPa  64%  28.7 km/h   42.9 km/h  4%  0.01 mm/h  16.1km  26%  Partly Cloudy 
 16/01/2019 - 18:00  -10.9°C  -20.0°C  1017.1 hPa  62%  25.8 km/h   42.9 km/h  0%  --  16.1km  19%  Clear 
 16/01/2019 - 19:00  -12.2°C  -21.2°C  1019.3 hPa  60%  23.2 km/h   41.8 km/h  2%  0.01 mm/h  16.1km  13%  Clear 
 16/01/2019 - 20:00  -13.2°C  -22.1°C  1021.0 hPa  58%  21.0 km/h   38.3 km/h  1%  0.01 mm/h  16.1km  8%  Clear 
 16/01/2019 - 21:00  -14.1°C  -22.8°C  1022.4 hPa  57%  19.0 km/h   33.7 km/h  1%  0.01 mm/h  16.1km  4%  Clear 
 16/01/2019 - 22:00  -14.9°C  -23.4°C  1023.7 hPa  56%  17.5 km/h   29.9 km/h  1%  0.01 mm/h  16.1km  0%  Clear 
 16/01/2019 - 23:00  -16.4°C  -25.0°C  1024.8 hPa  59%  16.3 km/h   27.2 km/h  0%  --  16.1km  0%  Clear 
 17/01/2019 - 00:00  -17.1°C  -25.6°C  1025.8 hPa  59%  15.5 km/h   25.2 km/h  0%  --  16.1km  0%  Clear 
 17/01/2019 - 01:00  -17.4°C  -25.9°C  1026.7 hPa  57%  15.1 km/h   23.5 km/h  0%  --  16.1km  0%  Clear 
 17/01/2019 - 02:00  -17.7°C  -26.0°C  1027.4 hPa  55%  14.4 km/h   22.3 km/h  0%  --  16.1km  0%  Clear 
 17/01/2019 - 03:00  -18.0°C  -26.2°C  1027.9 hPa  55%  13.8 km/h   21.4 km/h  0%  --  16.1km  0%  Clear 
 17/01/2019 - 04:00  -18.5°C  -26.6°C  1028.5 hPa  56%  13.1 km/h   20.7 km/h  0%  --  16.1km  0%  Clear 
 17/01/2019 - 05:00  -19.2°C  -27.1°C  1029.3 hPa  57%  12.2 km/h   20.1 km/h  0%  --  16.1km  0%  Clear 
 17/01/2019 - 06:00  -20.0°C  -27.7°C  1030.0 hPa  60%  11.3 km/h   19.8 km/h  1%  0.01 mm/h  16.1km  0%  Clear 
 17/01/2019 - 07:00  -20.2°C  -27.7°C  1030.6 hPa  61%  10.7 km/h   19.5 km/h  1%  0.01 mm/h  16.1km  0%  Clear 
 17/01/2019 - 08:00  -19.6°C  -27.0°C  1030.9 hPa  60%  10.7 km/h   19.5 km/h  1%  0.01 mm/h  16.1km  0%  Clear 
 17/01/2019 - 09:00  -18.8°C  -26.1°C  1031.2 hPa  59%  10.8 km/h   19.5 km/h  0%  --  16.1km  0%  Clear 
 17/01/2019 - 10:00  -18.2°C  -25.5°C  1031.2 hPa  61%  11.1 km/h   19.4 km/h  0%  --  16.1km  0%  Clear 
 17/01/2019 - 11:00  -17.2°C  -24.4°C  1030.6 hPa  61%  11.2 km/h   18.9 km/h  0%  --  16.1km  0%  Clear 
 17/01/2019 - 12:00  -15.1°C  -21.7°C  1029.8 hPa  56%  11.0 km/h   18.1 km/h  2%  0.01 mm/h  16.1km  0%  Clear 
 17/01/2019 - 13:00  -14.8°C  -21.2°C  1029.0 hPa  59%  10.6 km/h   17.3 km/h  2%  0.01 mm/h  16.1km  0%  Clear 
 17/01/2019 - 14:00  -13.9°C  -19.8°C  1028.4 hPa  59%  9.7 km/h   16.3 km/h  0%  --  16.1km  9%  Clear 
 17/01/2019 - 15:00  -13.3°C  -18.7°C  1027.7 hPa  59%  8.7 km/h   15.3 km/h  0%  --  16.1km  22%  Clear 
 17/01/2019 - 16:00  -13.4°C  -18.3°C  1027.2 hPa  61%  7.8 km/h   13.7 km/h  0%  --  16.1km  32%  Partly Cloudy 
 17/01/2019 - 17:00  -14.1°C  -18.6°C  1027.1 hPa  62%  6.8 km/h   10.8 km/h  0%  --  16.1km  34%  Partly Cloudy 
 17/01/2019 - 18:00  -15.1°C  -19.2°C  1027.1 hPa  65%  5.8 km/h   7.4 km/h  0%  --  16.1km  34%  Partly Cloudy 
Test

 

Past weather and reports

Past weatherFind in this section the past weather conditions, weather archive, graphics, reports and statistics.

Current conditions

Current weather condition for MontrealAll you need to know about the current weather conditions for Montreal. Weather data is updated every 10 minutes.

Weather forecast

Current Montreal weatherSince 2004, celinium.com website has provided accurate weather forecast for Montreal's island.